sensor_id;sensor_type;location;lat;lon;timestamp;P1;durP1;ratioP1;P2;durP2;ratioP2
7997;SDS011;4044;49.814;7.828;2023-08-08T00:01:41;3.20;;;2.00;;
7997;SDS011;4044;49.814;7.828;2023-08-08T00:04:08;2.60;;;2.40;;
7997;SDS011;4044;49.814;7.828;2023-08-08T00:06:35;2.33;;;2.13;;
7997;SDS011;4044;49.814;7.828;2023-08-08T00:09:01;2.60;;;2.40;;
7997;SDS011;4044;49.814;7.828;2023-08-08T00:11:27;2.33;;;2.17;;
7997;SDS011;4044;49.814;7.828;2023-08-08T00:13:52;3.77;;;2.60;;
7997;SDS011;4044;49.814;7.828;2023-08-08T00:16:18;3.90;;;2.40;;
7997;SDS011;4044;49.814;7.828;2023-08-08T00:18:43;2.70;;;2.47;;
7997;SDS011;4044;49.814;7.828;2023-08-08T00:21:09;3.37;;;2.23;;
7997;SDS011;4044;49.814;7.828;2023-08-08T00:23:34;3.83;;;2.60;;
7997;SDS011;4044;49.814;7.828;2023-08-08T00:26:00;4.63;;;2.70;;
7997;SDS011;4044;49.814;7.828;2023-08-08T00:28:26;2.60;;;2.40;;
7997;SDS011;4044;49.814;7.828;2023-08-08T00:30:51;4.30;;;2.60;;
7997;SDS011;4044;49.814;7.828;2023-08-08T00:33:16;2.83;;;2.53;;
7997;SDS011;4044;49.814;7.828;2023-08-08T00:35:42;2.43;;;2.23;;
7997;SDS011;4044;49.814;7.828;2023-08-08T00:38:09;3.40;;;2.53;;
7997;SDS011;4044;49.814;7.828;2023-08-08T00:40:35;2.53;;;2.10;;
7997;SDS011;4044;49.814;7.828;2023-08-08T00:43:00;4.53;;;2.50;;
7997;SDS011;4044;49.814;7.828;2023-08-08T00:45:26;2.57;;;2.47;;
7997;SDS011;4044;49.814;7.828;2023-08-08T00:47:52;3.80;;;2.70;;
7997;SDS011;4044;49.814;7.828;2023-08-08T00:50:18;3.03;;;2.63;;
7997;SDS011;4044;49.814;7.828;2023-08-08T00:52:44;3.17;;;2.40;;
7997;SDS011;4044;49.814;7.828;2023-08-08T00:55:10;3.10;;;2.70;;
7997;SDS011;4044;49.814;7.828;2023-08-08T00:57:36;3.30;;;2.40;;
7997;SDS011;4044;49.814;7.828;2023-08-08T01:00:04;2.70;;;2.50;;
7997;SDS011;4044;49.814;7.828;2023-08-08T01:02:35;2.60;;;2.40;;
7997;SDS011;4044;49.814;7.828;2023-08-08T01:05:01;2.60;;;2.40;;
7997;SDS011;4044;49.814;7.828;2023-08-08T01:08:15;2.57;;;2.43;;
7997;SDS011;4044;49.814;7.828;2023-08-08T01:10:33;3.77;;;2.37;;
7997;SDS011;4044;49.814;7.828;2023-08-08T01:13:13;2.70;;;2.50;;
7997;SDS011;4044;49.814;7.828;2023-08-08T01:15:42;3.17;;;2.47;;
7997;SDS011;4044;49.814;7.828;2023-08-08T01:18:09;2.80;;;2.60;;
7997;SDS011;4044;49.814;7.828;2023-08-08T01:20:36;3.00;;;2.40;;
7997;SDS011;4044;49.814;7.828;2023-08-08T01:25:29;2.70;;;2.50;;
7997;SDS011;4044;49.814;7.828;2023-08-08T01:27:55;2.50;;;2.30;;
7997;SDS011;4044;49.814;7.828;2023-08-08T01:30:20;2.70;;;2.50;;
7997;SDS011;4044;49.814;7.828;2023-08-08T01:32:46;2.90;;;2.70;;
7997;SDS011;4044;49.814;7.828;2023-08-08T01:35:11;3.20;;;2.90;;
7997;SDS011;4044;49.814;7.828;2023-08-08T01:37:42;3.00;;;2.80;;
7997;SDS011;4044;49.814;7.828;2023-08-08T01:40:13;4.40;;;2.63;;
7997;SDS011;4044;49.814;7.828;2023-08-08T01:42:42;3.10;;;2.90;;
7997;SDS011;4044;49.814;7.828;2023-08-08T01:45:10;3.37;;;3.10;;
7997;SDS011;4044;49.814;7.828;2023-08-08T01:47:36;3.23;;;2.70;;
7997;SDS011;4044;49.814;7.828;2023-08-08T01:50:02;3.53;;;2.97;;
7997;SDS011;4044;49.814;7.828;2023-08-08T01:52:27;3.00;;;2.53;;
7997;SDS011;4044;49.814;7.828;2023-08-08T01:54:53;3.60;;;2.50;;
7997;SDS011;4044;49.814;7.828;2023-08-08T01:57:19;3.10;;;2.60;;
7997;SDS011;4044;49.814;7.828;2023-08-08T01:59:47;3.07;;;2.87;;
7997;SDS011;4044;49.814;7.828;2023-08-08T02:02:13;4.83;;;2.80;;
7997;SDS011;4044;49.814;7.828;2023-08-08T02:04:40;3.57;;;2.90;;
7997;SDS011;4044;49.814;7.828;2023-08-08T02:07:05;3.67;;;2.70;;
7997;SDS011;4044;49.814;7.828;2023-08-08T02:09:31;4.53;;;2.57;;
7997;SDS011;4044;49.814;7.828;2023-08-08T02:11:56;3.47;;;2.90;;
7997;SDS011;4044;49.814;7.828;2023-08-08T02:14:22;3.57;;;2.70;;
7997;SDS011;4044;49.814;7.828;2023-08-08T02:16:47;3.30;;;2.90;;
7997;SDS011;4044;49.814;7.828;2023-08-08T02:19:13;3.80;;;2.73;;
7997;SDS011;4044;49.814;7.828;2023-08-08T02:21:39;2.97;;;2.77;;
7997;SDS011;4044;49.814;7.828;2023-08-08T02:24:05;3.10;;;2.90;;
7997;SDS011;4044;49.814;7.828;2023-08-08T02:26:30;3.07;;;2.87;;
7997;SDS011;4044;49.814;7.828;2023-08-08T02:28:56;3.20;;;2.90;;
7997;SDS011;4044;49.814;7.828;2023-08-08T02:31:21;3.83;;;2.80;;
7997;SDS011;4044;49.814;7.828;2023-08-08T02:33:48;3.40;;;3.10;;
7997;SDS011;4044;49.814;7.828;2023-08-08T02:36:15;3.90;;;3.47;;
7997;SDS011;4044;49.814;7.828;2023-08-08T02:38:41;3.43;;;3.03;;
7997;SDS011;4044;49.814;7.828;2023-08-08T02:41:06;3.23;;;2.70;;
7997;SDS011;4044;49.814;7.828;2023-08-08T02:43:32;3.17;;;2.87;;
7997;SDS011;4044;49.814;7.828;2023-08-08T02:45:57;2.93;;;2.60;;
7997;SDS011;4044;49.814;7.828;2023-08-08T02:48:23;7.03;;;3.33;;
7997;SDS011;4044;49.814;7.828;2023-08-08T02:50:48;3.47;;;2.80;;
7997;SDS011;4044;49.814;7.828;2023-08-08T02:53:14;2.97;;;2.70;;
7997;SDS011;4044;49.814;7.828;2023-08-08T02:55:39;3.10;;;2.80;;
7997;SDS011;4044;49.814;7.828;2023-08-08T02:58:05;4.97;;;3.30;;
7997;SDS011;4044;49.814;7.828;2023-08-08T03:00:30;3.33;;;2.80;;
7997;SDS011;4044;49.814;7.828;2023-08-08T03:02:56;3.60;;;3.30;;
7997;SDS011;4044;49.814;7.828;2023-08-08T03:05:21;3.30;;;3.00;;
7997;SDS011;4044;49.814;7.828;2023-08-08T03:07:47;3.40;;;3.20;;
7997;SDS011;4044;49.814;7.828;2023-08-08T03:10:12;3.77;;;2.87;;
7997;SDS011;4044;49.814;7.828;2023-08-08T03:12:38;3.47;;;3.17;;
7997;SDS011;4044;49.814;7.828;2023-08-08T03:15:04;3.17;;;2.97;;
7997;SDS011;4044;49.814;7.828;2023-08-08T03:17:30;4.00;;;3.70;;
7997;SDS011;4044;49.814;7.828;2023-08-08T03:19:56;3.67;;;3.37;;
7997;SDS011;4044;49.814;7.828;2023-08-08T03:22:21;3.20;;;2.90;;
7997;SDS011;4044;49.814;7.828;2023-08-08T03:24:47;6.90;;;3.40;;
7997;SDS011;4044;49.814;7.828;2023-08-08T03:27:12;3.33;;;3.03;;
7997;SDS011;4044;49.814;7.828;2023-08-08T03:29:38;4.10;;;2.90;;
7997;SDS011;4044;49.814;7.828;2023-08-08T03:32:04;3.73;;;3.43;;
7997;SDS011;4044;49.814;7.828;2023-08-08T03:34:29;3.40;;;3.10;;
7997;SDS011;4044;49.814;7.828;2023-08-08T03:36:55;3.50;;;3.20;;
7997;SDS011;4044;49.814;7.828;2023-08-08T03:39:21;5.17;;;3.50;;
7997;SDS011;4044;49.814;7.828;2023-08-08T03:41:46;3.57;;;3.30;;
7997;SDS011;4044;49.814;7.828;2023-08-08T03:44:12;4.93;;;3.00;;
7997;SDS011;4044;49.814;7.828;2023-08-08T03:46:37;3.90;;;3.50;;
7997;SDS011;4044;49.814;7.828;2023-08-08T03:49:03;4.50;;;3.33;;
7997;SDS011;4044;49.814;7.828;2023-08-08T03:51:29;4.47;;;2.80;;
7997;SDS011;4044;49.814;7.828;2023-08-08T03:53:54;3.40;;;3.10;;
7997;SDS011;4044;49.814;7.828;2023-08-08T03:56:20;3.37;;;3.07;;
7997;SDS011;4044;49.814;7.828;2023-08-08T03:58:45;3.50;;;3.27;;
7997;SDS011;4044;49.814;7.828;2023-08-08T04:01:11;3.40;;;3.10;;
7997;SDS011;4044;49.814;7.828;2023-08-08T04:03:36;3.60;;;3.30;;
7997;SDS011;4044;49.814;7.828;2023-08-08T04:06:02;4.10;;;3.20;;
7997;SDS011;4044;49.814;7.828;2023-08-08T04:08:28;4.27;;;3.87;;
7997;SDS011;4044;49.814;7.828;2023-08-08T04:10:53;5.43;;;3.30;;
7997;SDS011;4044;49.814;7.828;2023-08-08T04:13:19;3.60;;;3.30;;
7997;SDS011;4044;49.814;7.828;2023-08-08T04:15:45;5.03;;;3.27;;
7997;SDS011;4044;49.814;7.828;2023-08-08T04:18:10;3.90;;;3.50;;
7997;SDS011;4044;49.814;7.828;2023-08-08T04:20:36;3.83;;;3.53;;
7997;SDS011;4044;49.814;7.828;2023-08-08T04:23:01;4.80;;;3.40;;
7997;SDS011;4044;49.814;7.828;2023-08-08T04:25:27;6.70;;;4.20;;
7997;SDS011;4044;49.814;7.828;2023-08-08T04:27:53;3.70;;;3.40;;
7997;SDS011;4044;49.814;7.828;2023-08-08T04:30:19;3.87;;;3.57;;
7997;SDS011;4044;49.814;7.828;2023-08-08T04:32:45;4.10;;;3.57;;
7997;SDS011;4044;49.814;7.828;2023-08-08T04:35:10;3.67;;;3.37;;
7997;SDS011;4044;49.814;7.828;2023-08-08T04:37:36;5.70;;;3.40;;
7997;SDS011;4044;49.814;7.828;2023-08-08T04:40:01;3.73;;;3.43;;
7997;SDS011;4044;49.814;7.828;2023-08-08T04:42:28;4.03;;;3.63;;
7997;SDS011;4044;49.814;7.828;2023-08-08T04:44:54;5.53;;;3.77;;
7997;SDS011;4044;49.814;7.828;2023-08-08T04:47:19;3.97;;;3.57;;
7997;SDS011;4044;49.814;7.828;2023-08-08T04:49:45;5.33;;;3.40;;
7997;SDS011;4044;49.814;7.828;2023-08-08T04:52:10;3.40;;;3.20;;
7997;SDS011;4044;49.814;7.828;2023-08-08T04:54:36;4.37;;;3.47;;
7997;SDS011;4044;49.814;7.828;2023-08-08T04:57:01;14.03;;;12.30;;
7997;SDS011;4044;49.814;7.828;2023-08-08T04:59:27;63.10;;;43.87;;
7997;SDS011;4044;49.814;7.828;2023-08-08T05:01:52;55.20;;;37.73;;
7997;SDS011;4044;49.814;7.828;2023-08-08T05:04:18;56.20;;;36.83;;
7997;SDS011;4044;49.814;7.828;2023-08-08T05:06:43;31.63;;;22.53;;
7997;SDS011;4044;49.814;7.828;2023-08-08T05:09:09;25.30;;;17.60;;
7997;SDS011;4044;49.814;7.828;2023-08-08T05:11:35;19.97;;;14.97;;
7997;SDS011;4044;49.814;7.828;2023-08-08T05:14:01;20.10;;;15.37;;
7997;SDS011;4044;49.814;7.828;2023-08-08T05:16:27;23.60;;;17.33;;
7997;SDS011;4044;49.814;7.828;2023-08-08T05:18:52;18.97;;;15.40;;
7997;SDS011;4044;49.814;7.828;2023-08-08T05:21:19;14.93;;;13.37;;
7997;SDS011;4044;49.814;7.828;2023-08-08T05:23:44;12.23;;;11.03;;
7997;SDS011;4044;49.814;7.828;2023-08-08T05:26:10;11.90;;;10.67;;
7997;SDS011;4044;49.814;7.828;2023-08-08T05:28:36;9.50;;;8.60;;
7997;SDS011;4044;49.814;7.828;2023-08-08T05:31:01;9.70;;;8.80;;
7997;SDS011;4044;49.814;7.828;2023-08-08T05:33:27;8.87;;;8.03;;
7997;SDS011;4044;49.814;7.828;2023-08-08T05:35:52;8.90;;;8.00;;
7997;SDS011;4044;49.814;7.828;2023-08-08T05:38:18;8.73;;;7.13;;
7997;SDS011;4044;49.814;7.828;2023-08-08T05:40:43;8.30;;;7.33;;
7997;SDS011;4044;49.814;7.828;2023-08-08T05:43:09;7.40;;;6.43;;
7997;SDS011;4044;49.814;7.828;2023-08-08T05:45:34;6.80;;;6.10;;
7997;SDS011;4044;49.814;7.828;2023-08-08T05:48:00;6.33;;;5.73;;
7997;SDS011;4044;49.814;7.828;2023-08-08T05:50:28;7.67;;;6.00;;
7997;SDS011;4044;49.814;7.828;2023-08-08T05:52:54;5.70;;;5.20;;
7997;SDS011;4044;49.814;7.828;2023-08-08T05:55:20;4.17;;;3.50;;
7997;SDS011;4044;49.814;7.828;2023-08-08T05:57:45;5.30;;;3.60;;
7997;SDS011;4044;49.814;7.828;2023-08-08T06:00:11;5.10;;;3.83;;
7997;SDS011;4044;49.814;7.828;2023-08-08T06:02:37;5.50;;;3.70;;
7997;SDS011;4044;49.814;7.828;2023-08-08T06:05:03;4.70;;;3.63;;
7997;SDS011;4044;49.814;7.828;2023-08-08T06:07:29;4.07;;;3.33;;
7997;SDS011;4044;49.814;7.828;2023-08-08T06:09:55;3.83;;;3.43;;
7997;SDS011;4044;49.814;7.828;2023-08-08T06:12:20;4.53;;;2.83;;
7997;SDS011;4044;49.814;7.828;2023-08-08T06:14:46;3.73;;;2.67;;
7997;SDS011;4044;49.814;7.828;2023-08-08T06:17:12;3.60;;;3.07;;
7997;SDS011;4044;49.814;7.828;2023-08-08T06:19:38;6.87;;;2.93;;
7997;SDS011;4044;49.814;7.828;2023-08-08T06:22:03;3.80;;;2.30;;
7997;SDS011;4044;49.814;7.828;2023-08-08T06:24:29;4.23;;;2.67;;
7997;SDS011;4044;49.814;7.828;2023-08-08T06:26:54;2.47;;;1.90;;
7997;SDS011;4044;49.814;7.828;2023-08-08T06:29:20;2.80;;;1.90;;
7997;SDS011;4044;49.814;7.828;2023-08-08T06:31:45;3.50;;;2.40;;
7997;SDS011;4044;49.814;7.828;2023-08-08T06:34:11;3.80;;;2.10;;
7997;SDS011;4044;49.814;7.828;2023-08-08T06:36:36;2.43;;;1.60;;
7997;SDS011;4044;49.814;7.828;2023-08-08T06:39:02;2.03;;;1.70;;
7997;SDS011;4044;49.814;7.828;2023-08-08T06:41:28;2.07;;;1.90;;
7997;SDS011;4044;49.814;7.828;2023-08-08T06:43:53;1.77;;;1.67;;
7997;SDS011;4044;49.814;7.828;2023-08-08T06:46:19;3.63;;;1.80;;
7997;SDS011;4044;49.814;7.828;2023-08-08T06:48:45;2.17;;;1.67;;
7997;SDS011;4044;49.814;7.828;2023-08-08T06:51:12;1.77;;;1.53;;
7997;SDS011;4044;49.814;7.828;2023-08-08T06:53:37;1.47;;;1.37;;
7997;SDS011;4044;49.814;7.828;2023-08-08T06:56:03;1.60;;;1.50;;
7997;SDS011;4044;49.814;7.828;2023-08-08T06:58:29;1.60;;;1.50;;
7997;SDS011;4044;49.814;7.828;2023-08-08T07:00:54;2.13;;;1.60;;
7997;SDS011;4044;49.814;7.828;2023-08-08T07:03:20;1.67;;;1.57;;
7997;SDS011;4044;49.814;7.828;2023-08-08T07:05:45;3.73;;;1.43;;
7997;SDS011;4044;49.814;7.828;2023-08-08T07:08:12;1.53;;;1.20;;
7997;SDS011;4044;49.814;7.828;2023-08-08T07:10:38;4.40;;;1.70;;
7997;SDS011;4044;49.814;7.828;2023-08-08T07:13:03;1.35;;;1.35;;
7997;SDS011;4044;49.814;7.828;2023-08-08T07:15:29;5.85;;;1.70;;
7997;SDS011;4044;49.814;7.828;2023-08-08T07:17:56;1.77;;;1.50;;
7997;SDS011;4044;49.814;7.828;2023-08-08T07:20:21;1.67;;;1.23;;
7997;SDS011;4044;49.814;7.828;2023-08-08T07:22:47;1.20;;;1.20;;
7997;SDS011;4044;49.814;7.828;2023-08-08T07:25:13;1.98;;;1.63;;
7997;SDS011;4044;49.814;7.828;2023-08-08T07:27:38;2.22;;;1.60;;
7997;SDS011;4044;49.814;7.828;2023-08-08T07:30:04;1.58;;;1.48;;
7997;SDS011;4044;49.814;7.828;2023-08-08T07:32:31;2.20;;;1.45;;
7997;SDS011;4044;49.814;7.828;2023-08-08T07:34:58;4.43;;;1.67;;
7997;SDS011;4044;49.814;7.828;2023-08-08T07:37:23;1.40;;;1.30;;
7997;SDS011;4044;49.814;7.828;2023-08-08T07:39:50;1.88;;;1.25;;
7997;SDS011;4044;49.814;7.828;2023-08-08T07:42:19;1.45;;;1.35;;
7997;SDS011;4044;49.814;7.828;2023-08-08T07:44:44;1.90;;;1.77;;
7997;SDS011;4044;49.814;7.828;2023-08-08T07:47:10;3.75;;;1.23;;
7997;SDS011;4044;49.814;7.828;2023-08-08T07:49:35;3.55;;;1.58;;
7997;SDS011;4044;49.814;7.828;2023-08-08T07:52:01;3.22;;;1.50;;
7997;SDS011;4044;49.814;7.828;2023-08-08T07:54:26;1.88;;;1.60;;
7997;SDS011;4044;49.814;7.828;2023-08-08T07:56:52;1.83;;;1.42;;
7997;SDS011;4044;49.814;7.828;2023-08-08T07:59:17;3.63;;;1.58;;
7997;SDS011;4044;49.814;7.828;2023-08-08T08:01:43;2.15;;;1.48;;
7997;SDS011;4044;49.814;7.828;2023-08-08T08:04:08;2.25;;;1.30;;
7997;SDS011;4044;49.814;7.828;2023-08-08T08:06:34;2.55;;;1.35;;
7997;SDS011;4044;49.814;7.828;2023-08-08T08:08:59;1.85;;;1.52;;
7997;SDS011;4044;49.814;7.828;2023-08-08T08:11:25;1.30;;;1.20;;
7997;SDS011;4044;49.814;7.828;2023-08-08T08:13:50;1.52;;;1.40;;
7997;SDS011;4044;49.814;7.828;2023-08-08T08:16:16;2.17;;;1.60;;
7997;SDS011;4044;49.814;7.828;2023-08-08T08:18:41;1.73;;;1.52;;
7997;SDS011;4044;49.814;7.828;2023-08-08T08:21:07;2.00;;;1.40;;
7997;SDS011;4044;49.814;7.828;2023-08-08T08:23:33;4.32;;;1.75;;
7997;SDS011;4044;49.814;7.828;2023-08-08T08:25:58;1.98;;;1.40;;
7997;SDS011;4044;49.814;7.828;2023-08-08T08:28:25;2.17;;;1.50;;
7997;SDS011;4044;49.814;7.828;2023-08-08T08:30:50;2.97;;;1.40;;
7997;SDS011;4044;49.814;7.828;2023-08-08T08:33:16;1.73;;;1.63;;
7997;SDS011;4044;49.814;7.828;2023-08-08T08:35:41;2.97;;;1.35;;
7997;SDS011;4044;49.814;7.828;2023-08-08T08:38:07;3.17;;;1.83;;
7997;SDS011;4044;49.814;7.828;2023-08-08T08:40:34;2.25;;;1.50;;
7997;SDS011;4044;49.814;7.828;2023-08-08T08:43:02;4.05;;;1.60;;
7997;SDS011;4044;49.814;7.828;2023-08-08T08:45:29;4.32;;;1.52;;
7997;SDS011;4044;49.814;7.828;2023-08-08T08:47:55;4.22;;;1.80;;
7997;SDS011;4044;49.814;7.828;2023-08-08T08:50:22;2.17;;;1.40;;
7997;SDS011;4044;49.814;7.828;2023-08-08T08:52:51;3.00;;;1.60;;
7997;SDS011;4044;49.814;7.828;2023-08-08T08:55:17;2.65;;;1.48;;
7997;SDS011;4044;49.814;7.828;2023-08-08T08:57:43;1.55;;;1.35;;
7997;SDS011;4044;49.814;7.828;2023-08-08T09:00:10;4.05;;;1.80;;
7997;SDS011;4044;49.814;7.828;2023-08-08T09:02:36;1.50;;;1.40;;
7997;SDS011;4044;49.814;7.828;2023-08-08T09:05:01;1.60;;;1.45;;
7997;SDS011;4044;49.814;7.828;2023-08-08T09:07:29;4.43;;;1.60;;
7997;SDS011;4044;49.814;7.828;2023-08-08T09:09:56;2.47;;;1.88;;
7997;SDS011;4044;49.814;7.828;2023-08-08T09:12:22;1.92;;;1.70;;
7997;SDS011;4044;49.814;7.828;2023-08-08T09:14:53;5.10;;;1.60;;
7997;SDS011;4044;49.814;7.828;2023-08-08T09:17:20;1.83;;;1.67;;
7997;SDS011;4044;49.814;7.828;2023-08-08T09:19:45;3.30;;;1.83;;
7997;SDS011;4044;49.814;7.828;2023-08-08T09:22:14;1.75;;;1.52;;
7997;SDS011;4044;49.814;7.828;2023-08-08T09:24:40;3.03;;;1.80;;
7997;SDS011;4044;49.814;7.828;2023-08-08T09:27:07;3.63;;;1.90;;
7997;SDS011;4044;49.814;7.828;2023-08-08T09:29:33;2.42;;;1.80;;
7997;SDS011;4044;49.814;7.828;2023-08-08T09:31:59;2.03;;;1.77;;
7997;SDS011;4044;49.814;7.828;2023-08-08T09:34:28;4.47;;;1.52;;
7997;SDS011;4044;49.814;7.828;2023-08-08T09:36:54;2.58;;;1.75;;
7997;SDS011;4044;49.814;7.828;2023-08-08T09:39:20;1.65;;;1.55;;
7997;SDS011;4044;49.814;7.828;2023-08-08T09:41:46;3.10;;;1.90;;
7997;SDS011;4044;49.814;7.828;2023-08-08T09:44:12;2.08;;;1.83;;
7997;SDS011;4044;49.814;7.828;2023-08-08T09:46:38;2.67;;;1.70;;
7997;SDS011;4044;49.814;7.828;2023-08-08T09:49:04;1.85;;;1.70;;
7997;SDS011;4044;49.814;7.828;2023-08-08T09:51:30;2.63;;;1.70;;
7997;SDS011;4044;49.814;7.828;2023-08-08T09:53:58;2.58;;;1.55;;
7997;SDS011;4044;49.814;7.828;2023-08-08T09:56:25;3.35;;;1.70;;
7997;SDS011;4044;49.814;7.828;2023-08-08T09:58:51;2.70;;;1.58;;
7997;SDS011;4044;49.814;7.828;2023-08-08T10:01:17;2.67;;;1.60;;
7997;SDS011;4044;49.814;7.828;2023-08-08T10:03:44;1.67;;;1.58;;
7997;SDS011;4044;49.814;7.828;2023-08-08T10:06:10;2.67;;;1.50;;
7997;SDS011;4044;49.814;7.828;2023-08-08T10:08:37;2.50;;;1.80;;
7997;SDS011;4044;49.814;7.828;2023-08-08T10:11:03;2.53;;;1.92;;
7997;SDS011;4044;49.814;7.828;2023-08-08T10:13:31;3.63;;;2.00;;
7997;SDS011;4044;49.814;7.828;2023-08-08T10:15:57;2.80;;;1.60;;
7997;SDS011;4044;49.814;7.828;2023-08-08T10:18:28;1.92;;;1.70;;
7997;SDS011;4044;49.814;7.828;2023-08-08T10:20:54;2.17;;;1.40;;
7997;SDS011;4044;49.814;7.828;2023-08-08T10:23:22;2.28;;;1.60;;
7997;SDS011;4044;49.814;7.828;2023-08-08T10:25:48;2.80;;;1.50;;
7997;SDS011;4044;49.814;7.828;2023-08-08T10:28:17;3.17;;;1.73;;
7997;SDS011;4044;49.814;7.828;2023-08-08T10:33:27;1.75;;;1.50;;
7997;SDS011;4044;49.814;7.828;2023-08-08T10:36:04;1.95;;;1.60;;
7997;SDS011;4044;49.814;7.828;2023-08-08T10:38:48;3.53;;;1.60;;
7997;SDS011;4044;49.814;7.828;2023-08-08T10:41:19;2.80;;;1.33;;
7997;SDS011;4044;49.814;7.828;2023-08-08T10:43:50;1.75;;;1.40;;
7997;SDS011;4044;49.814;7.828;2023-08-08T10:46:23;2.35;;;1.80;;
7997;SDS011;4044;49.814;7.828;2023-08-08T10:48:57;1.95;;;1.60;;
7997;SDS011;4044;49.814;7.828;2023-08-08T10:51:31;2.95;;;1.95;;
7997;SDS011;4044;49.814;7.828;2023-08-08T10:54:51;2.40;;;1.60;;
7997;SDS011;4044;49.814;7.828;2023-08-08T10:56:54;3.75;;;1.58;;
7997;SDS011;4044;49.814;7.828;2023-08-08T10:59:21;1.98;;;1.70;;
7997;SDS011;4044;49.814;7.828;2023-08-08T11:01:50;1.63;;;1.52;;
7997;SDS011;4044;49.814;7.828;2023-08-08T11:04:21;1.70;;;1.60;;
7997;SDS011;4044;49.814;7.828;2023-08-08T11:06:48;2.17;;;1.50;;
7997;SDS011;4044;49.814;7.828;2023-08-08T11:09:15;1.75;;;1.50;;
7997;SDS011;4044;49.814;7.828;2023-08-08T11:11:41;3.20;;;1.60;;
7997;SDS011;4044;49.814;7.828;2023-08-08T11:14:09;2.92;;;1.55;;
7997;SDS011;4044;49.814;7.828;2023-08-08T11:16:35;1.92;;;1.70;;
7997;SDS011;4044;49.814;7.828;2023-08-08T11:19:01;2.15;;;1.77;;
7997;SDS011;4044;49.814;7.828;2023-08-08T11:21:28;1.85;;;1.40;;
7997;SDS011;4044;49.814;7.828;2023-08-08T11:23:53;2.15;;;1.83;;
7997;SDS011;4044;49.814;7.828;2023-08-08T11:26:19;1.98;;;1.50;;
7997;SDS011;4044;49.814;7.828;2023-08-08T11:28:51;3.20;;;1.70;;
7997;SDS011;4044;49.814;7.828;2023-08-08T11:31:20;2.05;;;1.85;;
7997;SDS011;4044;49.814;7.828;2023-08-08T11:33:47;2.92;;;1.52;;
7997;SDS011;4044;49.814;7.828;2023-08-08T11:36:13;1.75;;;1.40;;
7997;SDS011;4044;49.814;7.828;2023-08-08T11:38:39;1.80;;;1.70;;
7997;SDS011;4044;49.814;7.828;2023-08-08T11:41:08;1.70;;;1.60;;
7997;SDS011;4044;49.814;7.828;2023-08-08T11:43:35;1.75;;;1.65;;
7997;SDS011;4044;49.814;7.828;2023-08-08T11:46:02;1.40;;;1.30;;
7997;SDS011;4044;49.814;7.828;2023-08-08T11:48:28;1.92;;;1.48;;
7997;SDS011;4044;49.814;7.828;2023-08-08T11:50:53;2.03;;;1.65;;
7997;SDS011;4044;49.814;7.828;2023-08-08T11:53:19;1.88;;;1.67;;
7997;SDS011;4044;49.814;7.828;2023-08-08T11:55:45;1.52;;;1.42;;
7997;SDS011;4044;49.814;7.828;2023-08-08T11:58:14;1.70;;;1.42;;
7997;SDS011;4044;49.814;7.828;2023-08-08T12:00:40;1.60;;;1.50;;
7997;SDS011;4044;49.814;7.828;2023-08-08T12:03:10;3.22;;;1.60;;
7997;SDS011;4044;49.814;7.828;2023-08-08T12:05:39;1.65;;;1.55;;
7997;SDS011;4044;49.814;7.828;2023-08-08T12:08:05;1.50;;;1.40;;
7997;SDS011;4044;49.814;7.828;2023-08-08T12:10:32;1.60;;;1.50;;
7997;SDS011;4044;49.814;7.828;2023-08-08T12:12:57;1.67;;;1.55;;
7997;SDS011;4044;49.814;7.828;2023-08-08T12:15:28;2.47;;;1.70;;
7997;SDS011;4044;49.814;7.828;2023-08-08T12:17:55;1.85;;;1.60;;
7997;SDS011;4044;49.814;7.828;2023-08-08T12:20:22;2.90;;;1.42;;
7997;SDS011;4044;49.814;7.828;2023-08-08T12:22:47;2.65;;;1.70;;
7997;SDS011;4044;49.814;7.828;2023-08-08T12:25:13;2.25;;;1.40;;
7997;SDS011;4044;49.814;7.828;2023-08-08T12:27:38;3.08;;;1.70;;
7997;SDS011;4044;49.814;7.828;2023-08-08T12:30:05;2.03;;;1.33;;
7997;SDS011;4044;49.814;7.828;2023-08-08T12:32:32;1.40;;;1.30;;
7997;SDS011;4044;49.814;7.828;2023-08-08T12:34:58;3.25;;;1.40;;
7997;SDS011;4044;49.814;7.828;2023-08-08T12:37:23;1.42;;;1.33;;
7997;SDS011;4044;49.814;7.828;2023-08-08T12:39:49;1.90;;;1.42;;
7997;SDS011;4044;49.814;7.828;2023-08-08T12:42:15;2.28;;;1.50;;
7997;SDS011;4044;49.814;7.828;2023-08-08T12:44:42;2.22;;;1.60;;
7997;SDS011;4044;49.814;7.828;2023-08-08T12:47:07;1.45;;;1.35;;
7997;SDS011;4044;49.814;7.828;2023-08-08T12:49:33;2.78;;;1.50;;
7997;SDS011;4044;49.814;7.828;2023-08-08T12:51:58;1.48;;;1.38;;
7997;SDS011;4044;49.814;7.828;2023-08-08T12:54:24;1.67;;;1.40;;
7997;SDS011;4044;49.814;7.828;2023-08-08T12:56:50;3.05;;;1.50;;
7997;SDS011;4044;49.814;7.828;2023-08-08T12:59:16;1.98;;;1.30;;
7997;SDS011;4044;49.814;7.828;2023-08-08T13:01:41;1.83;;;1.30;;
7997;SDS011;4044;49.814;7.828;2023-08-08T13:04:07;1.38;;;1.27;;
7997;SDS011;4044;49.814;7.828;2023-08-08T13:06:32;2.10;;;1.27;;
7997;SDS011;4044;49.814;7.828;2023-08-08T13:08:58;2.35;;;1.40;;
7997;SDS011;4044;49.814;7.828;2023-08-08T13:11:25;2.45;;;1.50;;
7997;SDS011;4044;49.814;7.828;2023-08-08T13:13:51;1.88;;;1.40;;
7997;SDS011;4044;49.814;7.828;2023-08-08T13:16:16;1.55;;;1.45;;
7997;SDS011;4044;49.814;7.828;2023-08-08T13:18:42;2.13;;;1.33;;
7997;SDS011;4044;49.814;7.828;2023-08-08T13:21:07;1.80;;;1.30;;
7997;SDS011;4044;49.814;7.828;2023-08-08T13:23:35;1.85;;;1.33;;
7997;SDS011;4044;49.814;7.828;2023-08-08T13:26:01;3.03;;;1.40;;
7997;SDS011;4044;49.814;7.828;2023-08-08T13:28:28;1.50;;;1.40;;
7997;SDS011;4044;49.814;7.828;2023-08-08T13:30:54;4.00;;;1.40;;
7997;SDS011;4044;49.814;7.828;2023-08-08T13:33:19;1.35;;;1.20;;
7997;SDS011;4044;49.814;7.828;2023-08-08T13:35:46;1.67;;;1.20;;
7997;SDS011;4044;49.814;7.828;2023-08-08T13:38:11;1.67;;;1.27;;
7997;SDS011;4044;49.814;7.828;2023-08-08T13:40:40;2.35;;;1.60;;
7997;SDS011;4044;49.814;7.828;2023-08-08T13:43:06;2.80;;;1.60;;
7997;SDS011;4044;49.814;7.828;2023-08-08T13:45:32;2.03;;;1.38;;
7997;SDS011;4044;49.814;7.828;2023-08-08T13:47:57;1.30;;;1.20;;
7997;SDS011;4044;49.814;7.828;2023-08-08T13:50:23;2.58;;;1.50;;
7997;SDS011;4044;49.814;7.828;2023-08-08T13:52:48;3.13;;;1.45;;
7997;SDS011;4044;49.814;7.828;2023-08-08T13:55:14;2.65;;;1.55;;
7997;SDS011;4044;49.814;7.828;2023-08-08T13:57:39;2.08;;;1.40;;
7997;SDS011;4044;49.814;7.828;2023-08-08T14:00:05;2.45;;;1.40;;
7997;SDS011;4044;49.814;7.828;2023-08-08T14:02:31;2.63;;;1.50;;
7997;SDS011;4044;49.814;7.828;2023-08-08T14:04:58;2.85;;;1.35;;
7997;SDS011;4044;49.814;7.828;2023-08-08T14:07:23;2.30;;;1.20;;
7997;SDS011;4044;49.814;7.828;2023-08-08T14:09:49;1.50;;;1.33;;
7997;SDS011;4044;49.814;7.828;2023-08-08T14:12:15;1.35;;;1.30;;
7997;SDS011;4044;49.814;7.828;2023-08-08T14:14:41;2.20;;;1.45;;
7997;SDS011;4044;49.814;7.828;2023-08-08T14:17:07;3.25;;;1.40;;
7997;SDS011;4044;49.814;7.828;2023-08-08T14:19:32;1.63;;;1.27;;
7997;SDS011;4044;49.814;7.828;2023-08-08T14:21:58;2.55;;;1.50;;
7997;SDS011;4044;49.814;7.828;2023-08-08T14:24:24;1.48;;;1.38;;
7997;SDS011;4044;49.814;7.828;2023-08-08T14:26:50;1.75;;;1.40;;
7997;SDS011;4044;49.814;7.828;2023-08-08T14:29:15;2.15;;;1.67;;
7997;SDS011;4044;49.814;7.828;2023-08-08T14:31:41;1.90;;;1.58;;
7997;SDS011;4044;49.814;7.828;2023-08-08T14:34:06;1.70;;;1.60;;
7997;SDS011;4044;49.814;7.828;2023-08-08T14:36:32;2.78;;;1.58;;
7997;SDS011;4044;49.814;7.828;2023-08-08T14:38:58;1.58;;;1.48;;
7997;SDS011;4044;49.814;7.828;2023-08-08T14:41:23;2.03;;;1.50;;
7997;SDS011;4044;49.814;7.828;2023-08-08T14:43:49;2.70;;;1.60;;
7997;SDS011;4044;49.814;7.828;2023-08-08T14:46:14;1.73;;;1.60;;
7997;SDS011;4044;49.814;7.828;2023-08-08T14:48:40;1.40;;;1.30;;
7997;SDS011;4044;49.814;7.828;2023-08-08T14:51:05;2.03;;;1.48;;
7997;SDS011;4044;49.814;7.828;2023-08-08T14:53:31;2.10;;;1.90;;
7997;SDS011;4044;49.814;7.828;2023-08-08T14:55:56;1.90;;;1.77;;
7997;SDS011;4044;49.814;7.828;2023-08-08T14:58:22;4.05;;;1.65;;
7997;SDS011;4044;49.814;7.828;2023-08-08T15:00:47;1.63;;;1.52;;
7997;SDS011;4044;49.814;7.828;2023-08-08T15:03:13;2.42;;;1.50;;
7997;SDS011;4044;49.814;7.828;2023-08-08T15:05:39;1.75;;;1.65;;
7997;SDS011;4044;49.814;7.828;2023-08-08T15:08:05;2.92;;;1.85;;
7997;SDS011;4044;49.814;7.828;2023-08-08T15:10:31;2.90;;;1.75;;
7997;SDS011;4044;49.814;7.828;2023-08-08T15:12:56;2.15;;;1.80;;
7997;SDS011;4044;49.814;7.828;2023-08-08T15:15:22;2.75;;;1.92;;